Courage — WDC6907 — position and weather

sailwx.info

Track history (hours):
 
Tides and Currents Weather Stations Pressure Air Temp Water Temp Dewpoint Dewpoint Depression Visibility Wind Speed Wind Dir Waves Ship Positions

Courage

Owner: TOTE Services, Inc., Jacksonville, FL. More information available from US FCC via Universal Licensing System and Coast Guard Vessel Documentation Center.

Last reported at 2015-Mar-18 02:25 UTC. Time now 2015-Apr-01 04:39 UTC.
Position N 29°19' W 094°47'.
Warning: this ship's position is 14 days out of date.

Type: Ship. MMSI: 367063050.

Date/timePositionNaut miles runAvg speedWind from/ knotsBaromVisibWave heightAir tempDewpointWater temp
2015-Mar-18 02:25N 29°19' W 094°47'1 1.2
2015-Mar-18 01:12N 29°20' W 094°46'  
2015-Mar-15 02:33N 25°56' W 079°29'1514.6
2015-Mar-15 01:33N 26°11' W 079°26'1714.6
2015-Mar-15 00:24N 26°28' W 079°25'2814.7
2015-Mar-14 22:28N 26°56' W 079°24'72914.5
2015-Mar-12 20:15N 38°49' W 076°25'1216.7
2015-Mar-12 19:31N 39°01' W 076°23'1212.5
2015-Mar-12 18:33N 39°12' W 076°30'3 3.4
2015-Mar-12 17:33N 39°15' W 076°32'0 0.0
2015-Mar-12 16:33N 39°15' W 076°32'0 0.0
2015-Mar-12 15:33N 39°15' W 076°32'0 0.0
2015-Mar-12 14:33N 39°15' W 076°32'0 0.0
2015-Mar-12 13:33N 39°15' W 076°32'0 0.0
2015-Mar-12 12:33N 39°15' W 076°32'0 0.0
2015-Mar-12 11:33N 39°15' W 076°32'0 0.0
2015-Mar-12 10:32N 39°15' W 076°32'0 0.0
2015-Mar-12 09:33N 39°15' W 076°32'0 0.0
2015-Mar-12 08:32N 39°15' W 076°32'0 0.0
2015-Mar-12 07:34N 39°15' W 076°32'0 0.0
2015-Mar-12 06:34N 39°15' W 076°32'0 0.0
2015-Mar-12 05:34N 39°15' W 076°32'2 1.9
2015-Mar-12 04:34N 39°15' W 076°35'0 0.2
2015-Mar-12 03:34N 39°15' W 076°35'0 0.0
2015-Mar-12 02:34N 39°15' W 076°35'0 0.0
2015-Mar-12 01:33N 39°15' W 076°35'0 0.0
2015-Mar-12 00:34N 39°15' W 076°35'0 0.0
2015-Mar-11 23:34N 39°15' W 076°35'0 0.0
2015-Mar-11 22:34N 39°15' W 076°35'0 0.0
2015-Mar-11 21:34N 39°15' W 076°35'1 0.8
2015-Mar-11 20:34N 39°15' W 076°34'9 9.3
2015-Mar-11 19:34N 39°09' W 076°25'1313.4
2015-Mar-11 18:33N 38°56' W 076°23'1616.1
2015-Mar-11 17:33N 38°39' W 076°25'1615.6
2015-Mar-11 16:33N 38°24' W 076°21'  
Track history (hours):
 
Tides and Currents Weather Stations Pressure Air Temp Water Temp Dewpoint Dewpoint Depression Visibility Wind Speed Wind Dir Waves Ship Positions

Courage

Owner: TOTE Services, Inc., Jacksonville, FL. More information available from US FCC via Universal Licensing System and Coast Guard Vessel Documentation Center.

Last reported at 2015-Mar-18 02:25 UTC. Time now 2015-Apr-01 04:39 UTC.
Position N 29°19' W 094°47'.
Warning: this ship's position is 14 days out of date.

Type: Ship. MMSI: 367063050.

Date/timePositionNaut miles runAvg speedWind from/ knotsBaromVisibWave heightAir tempDewpointWater temp
2015-Mar-18 02:25N 29°19' W 094°47'1 1.2
2015-Mar-18 01:12N 29°20' W 094°46'  
2015-Mar-15 02:33N 25°56' W 079°29'1514.6
2015-Mar-15 01:33N 26°11' W 079°26'1714.6
2015-Mar-15 00:24N 26°28' W 079°25'2814.7
2015-Mar-14 22:28N 26°56' W 079°24'72914.5
2015-Mar-12 20:15N 38°49' W 076°25'1216.7
2015-Mar-12 19:31N 39°01' W 076°23'1212.5
2015-Mar-12 18:33N 39°12' W 076°30'3 3.4
2015-Mar-12 17:33N 39°15' W 076°32'0 0.0
2015-Mar-12 16:33N 39°15' W 076°32'0 0.0
2015-Mar-12 15:33N 39°15' W 076°32'0 0.0
2015-Mar-12 14:33N 39°15' W 076°32'0 0.0
2015-Mar-12 13:33N 39°15' W 076°32'0 0.0
2015-Mar-12 12:33N 39°15' W 076°32'0 0.0
2015-Mar-12 11:33N 39°15' W 076°32'0 0.0
2015-Mar-12 10:32N 39°15' W 076°32'0 0.0
2015-Mar-12 09:33N 39°15' W 076°32'0 0.0
2015-Mar-12 08:32N 39°15' W 076°32'0 0.0
2015-Mar-12 07:34N 39°15' W 076°32'0 0.0
2015-Mar-12 06:34N 39°15' W 076°32'0 0.0
2015-Mar-12 05:34N 39°15' W 076°32'2 1.9
2015-Mar-12 04:34N 39°15' W 076°35'0 0.2
2015-Mar-12 03:34N 39°15' W 076°35'0 0.0
2015-Mar-12 02:34N 39°15' W 076°35'0 0.0
2015-Mar-12 01:33N 39°15' W 076°35'0 0.0
2015-Mar-12 00:34N 39°15' W 076°35'0 0.0
2015-Mar-11 23:34N 39°15' W 076°35'0 0.0
2015-Mar-11 22:34N 39°15' W 076°35'0 0.0
2015-Mar-11 21:34N 39°15' W 076°35'1 0.8
2015-Mar-11 20:34N 39°15' W 076°34'9 9.3
2015-Mar-11 19:34N 39°09' W 076°25'1313.4
2015-Mar-11 18:33N 38°56' W 076°23'1616.1
2015-Mar-11 17:33N 38°39' W 076°25'1615.6
2015-Mar-11 16:33N 38°24' W 076°21'  

Dump ship's entire track history